sensor_id;sensor_type;location;lat;lon;timestamp;pressure;altitude;pressure_sealevel;temperature;humidity
85909;BME280;76449;52.542;4.680;2024-03-02T00:02:14;99645.13;;;20.91;40.32
85909;BME280;76449;52.542;4.680;2024-03-02T00:04:39;99681.59;;;20.93;40.16
85909;BME280;76449;52.542;4.680;2024-03-02T00:07:06;99677.34;;;20.91;40.32
85909;BME280;76449;52.542;4.680;2024-03-02T00:09:32;99678.81;;;20.95;40.13
85909;BME280;76449;52.542;4.680;2024-03-02T00:12:01;99673.69;;;20.92;40.32
85909;BME280;76449;52.542;4.680;2024-03-02T00:14:29;99671.13;;;20.90;39.87
85909;BME280;76449;52.542;4.680;2024-03-02T00:16:55;99677.44;;;20.89;39.97
85909;BME280;76449;52.542;4.680;2024-03-02T00:19:21;99675.94;;;20.85;39.88
85909;BME280;76449;52.542;4.680;2024-03-02T00:21:46;99688.44;;;20.86;40.14
85909;BME280;76449;52.542;4.680;2024-03-02T00:26:45;99687.91;;;20.81;40.06
85909;BME280;76449;52.542;4.680;2024-03-02T00:29:15;99693.28;;;20.81;40.39
85909;BME280;76449;52.542;4.680;2024-03-02T00:31:41;99680.72;;;20.81;40.14
85909;BME280;76449;52.542;4.680;2024-03-02T00:34:07;99683.41;;;20.81;40.22
85909;BME280;76449;52.542;4.680;2024-03-02T00:36:33;99687.03;;;20.80;40.17
85909;BME280;76449;52.542;4.680;2024-03-02T00:38:58;99699.72;;;20.78;39.95
85909;BME280;76449;52.542;4.680;2024-03-02T00:41:29;99708.75;;;20.77;40.48
85909;BME280;76449;52.542;4.680;2024-03-02T00:46:23;99729.47;;;20.75;40.44
85909;BME280;76449;52.542;4.680;2024-03-02T00:49:00;99721.75;;;20.71;40.47
85909;BME280;76449;52.542;4.680;2024-03-02T00:51:28;99723.59;;;20.70;40.37
85909;BME280;76449;52.542;4.680;2024-03-02T00:53:55;99715.53;;;20.70;40.13
85909;BME280;76449;52.542;4.680;2024-03-02T00:56:22;99715.41;;;20.72;40.36
85909;BME280;76449;52.542;4.680;2024-03-02T00:58:48;99712.84;;;20.70;40.20
85909;BME280;76449;52.542;4.680;2024-03-02T01:01:13;99717.47;;;20.68;40.10
85909;BME280;76449;52.542;4.680;2024-03-02T01:03:39;99715.34;;;20.61;40.07
85909;BME280;76449;52.542;4.680;2024-03-02T01:06:06;99707.41;;;20.59;40.26
85909;BME280;76449;52.542;4.680;2024-03-02T01:08:33;99716.09;;;20.63;40.09
85909;BME280;76449;52.542;4.680;2024-03-02T01:10:58;99730.25;;;20.65;40.39
85909;BME280;76449;52.542;4.680;2024-03-02T01:13:23;99729.50;;;20.63;40.20
85909;BME280;76449;52.542;4.680;2024-03-02T01:15:49;99728.78;;;20.61;40.13
85909;BME280;76449;52.542;4.680;2024-03-02T01:18:14;99720.81;;;20.59;40.12
85909;BME280;76449;52.542;4.680;2024-03-02T01:20:40;99731.44;;;20.61;40.44
85909;BME280;76449;52.542;4.680;2024-03-02T01:23:05;99727.06;;;20.60;40.48
85909;BME280;76449;52.542;4.680;2024-03-02T01:25:31;99728.84;;;20.59;40.43
85909;BME280;76449;52.542;4.680;2024-03-02T01:27:56;99715.78;;;20.54;40.15
85909;BME280;76449;52.542;4.680;2024-03-02T01:30:21;99718.47;;;20.54;40.03
85909;BME280;76449;52.542;4.680;2024-03-02T01:32:47;99721.16;;;20.54;40.32
85909;BME280;76449;52.542;4.680;2024-03-02T01:35:12;99717.72;;;20.52;40.39
85909;BME280;76449;52.542;4.680;2024-03-02T01:37:37;99724.72;;;20.55;40.42
85909;BME280;76449;52.542;4.680;2024-03-02T01:40:03;99719.44;;;20.53;40.12
85909;BME280;76449;52.542;4.680;2024-03-02T01:42:37;99712.88;;;20.45;40.31
85909;BME280;76449;52.542;4.680;2024-03-02T01:45:06;99704.09;;;20.43;40.25
85909;BME280;76449;52.542;4.680;2024-03-02T01:47:32;99721.59;;;20.48;40.15
85909;BME280;76449;52.542;4.680;2024-03-02T01:49:58;99741.31;;;20.47;40.59
85909;BME280;76449;52.542;4.680;2024-03-02T01:52:23;99729.84;;;20.32;40.24
85909;BME280;76449;52.542;4.680;2024-03-02T01:54:49;99753.03;;;20.46;40.66
85909;BME280;76449;52.542;4.680;2024-03-02T01:57:14;99753.03;;;20.46;40.32
85909;BME280;76449;52.542;4.680;2024-03-02T01:59:39;99765.69;;;20.44;40.40
85909;BME280;76449;52.542;4.680;2024-03-02T02:02:05;99768.50;;;20.43;40.74
85909;BME280;76449;52.542;4.680;2024-03-02T02:04:30;99766.75;;;20.42;40.61
85909;BME280;76449;52.542;4.680;2024-03-02T02:06:56;99762.25;;;20.42;40.68
85909;BME280;76449;52.542;4.680;2024-03-02T02:09:21;99749.19;;;20.38;40.63
85909;BME280;76449;52.542;4.680;2024-03-02T02:11:47;99767.00;;;20.39;40.64
85909;BME280;76449;52.542;4.680;2024-03-02T02:14:12;99752.59;;;20.40;40.41
85909;BME280;76449;52.542;4.680;2024-03-02T02:16:38;99757.97;;;20.40;40.17
85909;BME280;76449;52.542;4.680;2024-03-02T02:19:03;99760.75;;;20.38;40.17
85909;BME280;76449;52.542;4.680;2024-03-02T02:21:28;99765.50;;;20.34;40.06
85909;BME280;76449;52.542;4.680;2024-03-02T02:23:53;99787.59;;;20.38;40.48
85909;BME280;76449;52.542;4.680;2024-03-02T02:26:19;99769.88;;;20.36;40.31
85909;BME280;76449;52.542;4.680;2024-03-02T02:28:44;99778.78;;;20.36;40.30
85909;BME280;76449;52.542;4.680;2024-03-02T02:31:15;99762.88;;;20.33;40.65
85909;BME280;76449;52.542;4.680;2024-03-02T02:33:41;99766.47;;;20.33;40.42
85909;BME280;76449;52.542;4.680;2024-03-02T02:36:06;99773.63;;;20.33;40.38
85909;BME280;76449;52.542;4.680;2024-03-02T02:38:34;99771.81;;;20.33;40.50
85909;BME280;76449;52.542;4.680;2024-03-02T02:41:02;99775.44;;;20.32;40.36
85909;BME280;76449;52.542;4.680;2024-03-02T02:43:27;99776.22;;;20.34;40.42
85909;BME280;76449;52.542;4.680;2024-03-02T02:45:52;99784.34;;;20.33;40.56
85909;BME280;76449;52.542;4.680;2024-03-02T02:48:18;99789.72;;;20.33;40.48
85909;BME280;76449;52.542;4.680;2024-03-02T02:50:43;99781.78;;;20.31;40.22
85909;BME280;76449;52.542;4.680;2024-03-02T02:53:08;99789.09;;;20.29;40.56
85909;BME280;76449;52.542;4.680;2024-03-02T02:55:35;99788.13;;;20.30;40.31
85909;BME280;76449;52.542;4.680;2024-03-02T02:58:05;99786.28;;;20.31;40.15
85909;BME280;76449;52.542;4.680;2024-03-02T03:00:31;99783.94;;;20.26;40.43
85909;BME280;76449;52.542;4.680;2024-03-02T03:02:56;99779.31;;;20.28;40.44
85909;BME280;76449;52.542;4.680;2024-03-02T03:05:22;99779.56;;;20.25;40.71
85909;BME280;76449;52.542;4.680;2024-03-02T03:07:47;99781.47;;;20.23;40.64
85909;BME280;76449;52.542;4.680;2024-03-02T03:10:15;99778.13;;;20.20;40.29
85909;BME280;76449;52.542;4.680;2024-03-02T03:12:40;99793.03;;;20.24;40.24
85909;BME280;76449;52.542;4.680;2024-03-02T03:15:08;99783.22;;;20.24;40.11
85909;BME280;76449;52.542;4.680;2024-03-02T03:17:34;99795.00;;;20.22;40.09
85909;BME280;76449;52.542;4.680;2024-03-02T03:20:00;99779.03;;;20.20;40.30
85909;BME280;76449;52.542;4.680;2024-03-02T03:22:26;99788.78;;;20.21;40.20
85909;BME280;76449;52.542;4.680;2024-03-02T03:24:51;99788.78;;;20.21;40.39
85909;BME280;76449;52.542;4.680;2024-03-02T03:27:17;99803.78;;;20.24;40.36
85909;BME280;76449;52.542;4.680;2024-03-02T03:29:42;99793.38;;;20.19;40.17
85909;BME280;76449;52.542;4.680;2024-03-02T03:32:08;99795.31;;;20.17;40.50
85909;BME280;76449;52.542;4.680;2024-03-02T03:34:33;99799.50;;;20.21;40.24
85909;BME280;76449;52.542;4.680;2024-03-02T03:36:59;99799.72;;;20.18;40.12
85909;BME280;76449;52.542;4.680;2024-03-02T03:39:24;99792.97;;;20.13;40.42
85909;BME280;76449;52.542;4.680;2024-03-02T03:41:49;99812.16;;;20.19;40.72
85909;BME280;76449;52.542;4.680;2024-03-02T03:44:15;99817.50;;;20.19;40.46
85909;BME280;76449;52.542;4.680;2024-03-02T03:46:40;99813.22;;;20.17;40.26
85909;BME280;76449;52.542;4.680;2024-03-02T03:49:06;99806.91;;;20.18;40.63
85909;BME280;76449;52.542;4.680;2024-03-02T03:51:33;99814.94;;;20.18;40.58
85909;BME280;76449;52.542;4.680;2024-03-02T03:53:58;99809.78;;;20.15;40.61
85909;BME280;76449;52.542;4.680;2024-03-02T03:56:23;99791.47;;;20.08;40.41
85909;BME280;76449;52.542;4.680;2024-03-02T03:58:49;99812.38;;;20.16;40.24
85909;BME280;76449;52.542;4.680;2024-03-02T04:01:14;99812.69;;;20.12;40.63
85909;BME280;76449;52.542;4.680;2024-03-02T04:03:39;99818.91;;;20.12;40.51
85909;BME280;76449;52.542;4.680;2024-03-02T04:06:05;99818.06;;;20.12;40.29
85909;BME280;76449;52.542;4.680;2024-03-02T04:08:30;99824.03;;;20.15;40.35
85909;BME280;76449;52.542;4.680;2024-03-02T04:10:55;99820.75;;;20.12;40.37
85909;BME280;76449;52.542;4.680;2024-03-02T04:13:21;99826.09;;;20.12;40.61
85909;BME280;76449;52.542;4.680;2024-03-02T04:15:46;99827.81;;;20.13;40.45
85909;BME280;76449;52.542;4.680;2024-03-02T04:18:11;99825.34;;;20.09;40.46
85909;BME280;76449;52.542;4.680;2024-03-02T04:20:37;99827.91;;;20.11;40.29
85909;BME280;76449;52.542;4.680;2024-03-02T04:23:02;99831.56;;;20.10;40.57
85909;BME280;76449;52.542;4.680;2024-03-02T04:25:28;99831.78;;;20.07;40.42
85909;BME280;76449;52.542;4.680;2024-03-02T04:27:53;99832.66;;;20.07;40.62
85909;BME280;76449;52.542;4.680;2024-03-02T04:30:18;99830.81;;;20.08;40.22
85909;BME280;76449;52.542;4.680;2024-03-02T04:32:44;99833.38;;;20.09;40.46
85909;BME280;76449;52.542;4.680;2024-03-02T04:35:12;99838.00;;;20.07;40.62
85909;BME280;76449;52.542;4.680;2024-03-02T04:37:40;99836.25;;;20.06;40.69
85909;BME280;76449;52.542;4.680;2024-03-02T04:40:06;99841.53;;;20.08;40.37
85909;BME280;76449;52.542;4.680;2024-03-02T04:42:35;99840.78;;;20.06;40.24
85909;BME280;76449;52.542;4.680;2024-03-02T04:45:00;99845.19;;;20.07;40.27
85909;BME280;76449;52.542;4.680;2024-03-02T04:47:26;99847.00;;;20.06;40.27
85909;BME280;76449;52.542;4.680;2024-03-02T04:49:52;99836.59;;;20.02;40.48
85909;BME280;76449;52.542;4.680;2024-03-02T04:52:17;99848.94;;;20.04;40.47
85909;BME280;76449;52.542;4.680;2024-03-02T04:54:43;99848.06;;;20.04;40.25
85909;BME280;76449;52.542;4.680;2024-03-02T04:57:27;99832.31;;;19.99;40.63
85909;BME280;76449;52.542;4.680;2024-03-02T04:59:52;99854.19;;;20.06;40.38
85909;BME280;76449;52.542;4.680;2024-03-02T05:02:18;99854.41;;;20.03;40.39
85909;BME280;76449;52.542;4.680;2024-03-02T05:04:43;99853.63;;;20.01;40.46
85909;BME280;76449;52.542;4.680;2024-03-02T05:07:08;99860.50;;;20.05;40.19
85909;BME280;76449;52.542;4.680;2024-03-02T05:09:33;99862.44;;;20.03;40.52
85909;BME280;76449;52.542;4.680;2024-03-02T05:11:59;99869.53;;;20.04;40.36
85909;BME280;76449;52.542;4.680;2024-03-02T05:14:40;99865.13;;;20.03;40.42
85909;BME280;76449;52.542;4.680;2024-03-02T05:17:06;99866.19;;;20.00;40.61
85909;BME280;76449;52.542;4.680;2024-03-02T05:19:31;99870.50;;;20.03;40.47
85909;BME280;76449;52.542;4.680;2024-03-02T05:21:56;99874.22;;;20.00;40.51
85909;BME280;76449;52.542;4.680;2024-03-02T05:24:21;99871.66;;;19.99;40.46
85909;BME280;76449;52.542;4.680;2024-03-02T05:26:47;99867.03;;;20.01;40.13
85909;BME280;76449;52.542;4.680;2024-03-02T05:29:12;99874.97;;;20.02;40.42
85909;BME280;76449;52.542;4.680;2024-03-02T05:31:37;99872.53;;;19.99;40.41
85909;BME280;76449;52.542;4.680;2024-03-02T05:34:03;99875.41;;;19.96;40.44
85909;BME280;76449;52.542;4.680;2024-03-02T05:36:28;99881.31;;;20.01;40.70
85909;BME280;76449;52.542;4.680;2024-03-02T05:38:54;99874.34;;;19.99;40.30
85909;BME280;76449;52.542;4.680;2024-03-02T05:41:19;99880.44;;;20.01;40.51
85909;BME280;76449;52.542;4.680;2024-03-02T05:43:45;99886.91;;;19.98;40.24
85909;BME280;76449;52.542;4.680;2024-03-02T05:46:10;99886.97;;;19.97;40.27
85909;BME280;76449;52.542;4.680;2024-03-02T05:48:35;99892.47;;;19.95;40.44
85909;BME280;76449;52.542;4.680;2024-03-02T05:51:00;99888.06;;;19.94;40.43
85909;BME280;76449;52.542;4.680;2024-03-02T05:53:26;99889.66;;;19.97;40.15
85909;BME280;76449;52.542;4.680;2024-03-02T05:55:51;99900.38;;;19.97;40.47
85909;BME280;76449;52.542;4.680;2024-03-02T05:58:20;99903.91;;;19.97;40.52
85909;BME280;76449;52.542;4.680;2024-03-02T06:00:57;99905.66;;;19.98;40.15
85909;BME280;76449;52.542;4.680;2024-03-02T06:03:23;99903.25;;;19.94;40.27
85909;BME280;76449;52.542;4.680;2024-03-02T06:05:48;99905.88;;;19.95;40.62
85909;BME280;76449;52.542;4.680;2024-03-02T06:08:14;99911.09;;;19.97;40.35
85909;BME280;76449;52.542;4.680;2024-03-02T06:10:40;99912.94;;;19.96;40.18
85909;BME280;76449;52.542;4.680;2024-03-02T06:13:05;99919.16;;;19.97;40.11
85909;BME280;76449;52.542;4.680;2024-03-02T06:15:30;99907.78;;;19.93;40.52
85909;BME280;76449;52.542;4.680;2024-03-02T06:17:56;99913.91;;;19.95;40.52
85909;BME280;76449;52.542;4.680;2024-03-02T06:20:21;99921.09;;;19.95;40.13
85909;BME280;76449;52.542;4.680;2024-03-02T06:22:46;99921.94;;;19.95;40.32
85909;BME280;76449;52.542;4.680;2024-03-02T06:25:12;99911.41;;;19.92;40.58
85909;BME280;76449;52.542;4.680;2024-03-02T06:27:38;99908.06;;;19.89;40.51
85909;BME280;76449;52.542;4.680;2024-03-02T06:30:04;99914.09;;;19.92;40.44
85909;BME280;76449;52.542;4.680;2024-03-02T06:32:29;99918.41;;;19.95;40.22
85909;BME280;76449;52.542;4.680;2024-03-02T06:34:55;99921.28;;;19.92;40.19
85909;BME280;76449;52.542;4.680;2024-03-02T06:37:20;99925.69;;;19.93;40.25
85909;BME280;76449;52.542;4.680;2024-03-02T06:39:45;99923.13;;;19.91;40.18
85909;BME280;76449;52.542;4.680;2024-03-02T06:42:10;99932.00;;;19.92;40.12
85909;BME280;76449;52.542;4.680;2024-03-02T06:44:36;99933.06;;;19.89;40.23
85909;BME280;76449;52.542;4.680;2024-03-02T06:47:01;99940.16;;;19.90;40.36
85909;BME280;76449;52.542;4.680;2024-03-02T06:49:26;99943.69;;;19.91;40.03
85909;BME280;76449;52.542;4.680;2024-03-02T06:51:51;99911.25;;;19.68;40.54
85909;BME280;76449;52.542;4.680;2024-03-02T06:54:17;99944.66;;;19.90;40.28
85909;BME280;76449;52.542;4.680;2024-03-02T06:56:42;99938.53;;;19.88;40.28
85909;BME280;76449;52.542;4.680;2024-03-02T06:59:07;99935.75;;;19.89;40.30
85909;BME280;76449;52.542;4.680;2024-03-02T07:01:33;99949.13;;;19.89;40.01
85909;BME280;76449;52.542;4.680;2024-03-02T07:03:58;99948.22;;;19.90;40.51
85909;BME280;76449;52.542;4.680;2024-03-02T07:06:23;99943.78;;;19.89;40.58
85909;BME280;76449;52.542;4.680;2024-03-02T07:08:48;99936.72;;;19.88;40.43
85909;BME280;76449;52.542;4.680;2024-03-02T07:11:14;99939.50;;;19.87;40.17
85909;BME280;76449;52.542;4.680;2024-03-02T07:13:39;99941.22;;;19.88;40.27
85909;BME280;76449;52.542;4.680;2024-03-02T07:16:04;99952.78;;;19.88;40.23
85909;BME280;76449;52.542;4.680;2024-03-02T07:18:35;99953.66;;;19.89;40.23
85909;BME280;76449;52.542;4.680;2024-03-02T07:21:06;99951.19;;;19.86;40.19
85909;BME280;76449;52.542;4.680;2024-03-02T07:23:32;99955.47;;;19.88;40.13
85909;BME280;76449;52.542;4.680;2024-03-02T07:25:57;99959.97;;;19.88;40.57
85909;BME280;76449;52.542;4.680;2024-03-02T07:28:24;99969.47;;;19.79;40.51
85909;BME280;76449;52.542;4.680;2024-03-02T07:31:03;99949.75;;;19.80;40.17
85909;BME280;76449;52.542;4.680;2024-03-02T07:33:29;99968.63;;;19.78;40.34
85909;BME280;76449;52.542;4.680;2024-03-02T07:35:54;99972.06;;;19.80;40.15
85909;BME280;76449;52.542;4.680;2024-03-02T07:38:24;99962.09;;;19.82;40.12
85909;BME280;76449;52.542;4.680;2024-03-02T07:40:50;99975.31;;;19.86;40.01
85909;BME280;76449;52.542;4.680;2024-03-02T07:43:19;99978.75;;;19.88;40.37
85909;BME280;76449;52.542;4.680;2024-03-02T07:45:45;99970.59;;;19.89;40.09
85909;BME280;76449;52.542;4.680;2024-03-02T07:48:10;99967.91;;;19.89;40.72
85909;BME280;76449;52.542;4.680;2024-03-02T07:50:36;99971.56;;;19.88;40.56
85909;BME280;76449;52.542;4.680;2024-03-02T07:53:02;99978.13;;;19.97;40.17
85909;BME280;76449;52.542;4.680;2024-03-02T07:55:29;99978.91;;;19.99;40.47
85909;BME280;76449;52.542;4.680;2024-03-02T07:57:54;99985.78;;;20.03;40.19
85909;BME280;76449;52.542;4.680;2024-03-02T08:00:20;99970.00;;;19.98;40.58
85909;BME280;76449;52.542;4.680;2024-03-02T08:02:45;99981.47;;;20.00;40.26
85909;BME280;76449;52.542;4.680;2024-03-02T08:05:10;99990.94;;;20.06;40.40
85909;BME280;76449;52.542;4.680;2024-03-02T08:07:36;99985.47;;;20.07;40.15
85909;BME280;76449;52.542;4.680;2024-03-02T08:10:01;99987.50;;;20.04;40.50
85909;BME280;76449;52.542;4.680;2024-03-02T08:12:26;99997.91;;;20.08;40.08
85909;BME280;76449;52.542;4.680;2024-03-02T08:14:52;99991.69;;;20.08;40.11
85909;BME280;76449;52.542;4.680;2024-03-02T08:17:17;99994.38;;;20.08;40.37
85909;BME280;76449;52.542;4.680;2024-03-02T08:19:43;99985.47;;;20.07;40.12
85909;BME280;76449;52.542;4.680;2024-03-02T08:22:09;99990.06;;;20.05;40.12
85909;BME280;76449;52.542;4.680;2024-03-02T08:24:35;100000.28;;;20.13;40.46
85909;BME280;76449;52.542;4.680;2024-03-02T08:27:00;99999.31;;;20.14;40.47
85909;BME280;76449;52.542;4.680;2024-03-02T08:29:26;99992.06;;;20.16;40.29
85909;BME280;76449;52.542;4.680;2024-03-02T08:31:51;99983.22;;;20.14;40.71
85909;BME280;76449;52.542;4.680;2024-03-02T08:34:16;99978.00;;;20.13;40.15
85909;BME280;76449;52.542;4.680;2024-03-02T08:36:42;99986.69;;;20.16;40.31
85909;BME280;76449;52.542;4.680;2024-03-02T08:39:10;99983.91;;;20.18;40.42
85909;BME280;76449;52.542;4.680;2024-03-02T08:41:49;99979.88;;;20.11;40.44
85909;BME280;76449;52.542;4.680;2024-03-02T08:44:15;99980.47;;;20.16;40.34
85909;BME280;76449;52.542;4.680;2024-03-02T08:46:40;99975.00;;;20.17;40.39
85909;BME280;76449;52.542;4.680;2024-03-02T08:49:06;99972.44;;;20.16;40.25
85909;BME280;76449;52.542;4.680;2024-03-02T08:51:32;99982.94;;;20.19;40.32
85909;BME280;76449;52.542;4.680;2024-03-02T08:53:58;99979.50;;;20.17;40.35
85909;BME280;76449;52.542;4.680;2024-03-02T08:56:24;99987.25;;;20.21;40.30
85909;BME280;76449;52.542;4.680;2024-03-02T08:58:50;99981.09;;;20.19;40.57
85909;BME280;76449;52.542;4.680;2024-03-02T09:01:16;99983.59;;;20.22;40.38
85909;BME280;76449;52.542;4.680;2024-03-02T09:03:42;99981.03;;;20.21;40.43
85909;BME280;76449;52.542;4.680;2024-03-02T09:06:11;99987.25;;;20.21;40.55
85909;BME280;76449;52.542;4.680;2024-03-02T09:08:36;99996.88;;;20.24;40.68
85909;BME280;76449;52.542;4.680;2024-03-02T09:11:03;99992.41;;;20.24;40.66
85909;BME280;76449;52.542;4.680;2024-03-02T09:13:29;99997.78;;;20.24;40.80
85909;BME280;76449;52.542;4.680;2024-03-02T09:15:54;99996.13;;;20.22;40.63
85909;BME280;76449;52.542;4.680;2024-03-02T09:18:20;99995.94;;;20.25;40.68
85909;BME280;76449;52.542;4.680;2024-03-02T09:20:45;100000.34;;;20.26;40.28
85909;BME280;76449;52.542;4.680;2024-03-02T09:23:11;99993.25;;;20.25;40.74
85909;BME280;76449;52.542;4.680;2024-03-02T09:25:36;99992.41;;;20.24;40.68
85909;BME280;76449;52.542;4.680;2024-03-02T09:28:02;99998.63;;;20.25;40.68
85909;BME280;76449;52.542;4.680;2024-03-02T09:30:28;99994.97;;;20.26;41.14
85909;BME280;76449;52.542;4.680;2024-03-02T09:32:53;99999.16;;;20.30;41.20
85909;BME280;76449;52.542;4.680;2024-03-02T09:35:18;100000.88;;;20.31;40.99
85909;BME280;76449;52.542;4.680;2024-03-02T09:37:44;99992.94;;;20.29;41.13
85909;BME280;76449;52.542;4.680;2024-03-02T09:40:10;99988.22;;;20.33;41.18
85909;BME280;76449;52.542;4.680;2024-03-02T09:42:35;99989.97;;;20.34;40.87
85909;BME280;76449;52.542;4.680;2024-03-02T09:45:01;100000.56;;;20.36;41.17
85909;BME280;76449;52.542;4.680;2024-03-02T09:47:27;99982.00;;;20.32;41.28
85909;BME280;76449;52.542;4.680;2024-03-02T09:49:52;99983.63;;;20.35;41.46
85909;BME280;76449;52.542;4.680;2024-03-02T09:52:18;99979.53;;;20.29;41.33
85909;BME280;76449;52.542;4.680;2024-03-02T09:54:43;99991.66;;;20.35;41.54
85909;BME280;76449;52.542;4.680;2024-03-02T09:57:08;99991.66;;;20.35;40.97
85909;BME280;76449;52.542;4.680;2024-03-02T09:59:34;99998.09;;;20.32;41.30
85909;BME280;76449;52.542;4.680;2024-03-02T10:02:01;100000.47;;;20.37;41.31
85909;BME280;76449;52.542;4.680;2024-03-02T10:04:29;100001.44;;;20.36;40.98
85909;BME280;76449;52.542;4.680;2024-03-02T10:09:39;100007.00;;;20.33;41.34
85909;BME280;76449;52.542;4.680;2024-03-02T10:12:05;100010.25;;;20.38;41.16
85909;BME280;76449;52.542;4.680;2024-03-02T10:14:31;100011.97;;;20.39;40.78
85909;BME280;76449;52.542;4.680;2024-03-02T10:17:02;100007.66;;;20.37;41.24
85909;BME280;76449;52.542;4.680;2024-03-02T10:19:28;100009.28;;;20.39;41.05
85909;BME280;76449;52.542;4.680;2024-03-02T10:21:58;100005.94;;;20.36;41.10
85909;BME280;76449;52.542;4.680;2024-03-02T10:24:23;100007.44;;;20.40;41.08
85909;BME280;76449;52.542;4.680;2024-03-02T10:26:50;100018.19;;;20.40;40.86
85909;BME280;76449;52.542;4.680;2024-03-02T10:29:15;100010.34;;;20.37;41.41
85909;BME280;76449;52.542;4.680;2024-03-02T10:31:42;100018.19;;;20.40;41.09
85909;BME280;76449;52.542;4.680;2024-03-02T10:34:09;100020.88;;;20.40;41.32
85909;BME280;76449;52.542;4.680;2024-03-02T10:36:36;100015.50;;;20.40;41.10
85909;BME280;76449;52.542;4.680;2024-03-02T10:39:06;100005.75;;;20.39;41.23
85909;BME280;76449;52.542;4.680;2024-03-02T10:41:34;100010.03;;;20.41;41.01
85909;BME280;76449;52.542;4.680;2024-03-02T10:44:04;100013.69;;;20.40;41.01
85909;BME280;76449;52.542;4.680;2024-03-02T10:46:31;100009.16;;;20.41;40.93
85909;BME280;76449;52.542;4.680;2024-03-02T10:48:58;100002.94;;;20.40;41.16
85909;BME280;76449;52.542;4.680;2024-03-02T10:51:27;100000.16;;;20.42;40.87
85909;BME280;76449;52.542;4.680;2024-03-02T10:53:54;100005.50;;;20.42;41.21
85909;BME280;76449;52.542;4.680;2024-03-02T10:56:28;99996.72;;;20.40;41.09
85909;BME280;76449;52.542;4.680;2024-03-02T10:59:03;99995.00;;;20.39;41.04
85909;BME280;76449;52.542;4.680;2024-03-02T11:01:30;100004.03;;;20.38;40.88
85909;BME280;76449;52.542;4.680;2024-03-02T11:03:57;99995.00;;;20.39;40.96
85909;BME280;76449;52.542;4.680;2024-03-02T11:06:23;99997.47;;;20.42;41.23
85909;BME280;76449;52.542;4.680;2024-03-02T11:08:52;99996.53;;;20.43;41.24
85909;BME280;76449;52.542;4.680;2024-03-02T11:11:22;100000.16;;;20.42;40.93
85909;BME280;76449;52.542;4.680;2024-03-02T11:13:52;99993.06;;;20.41;40.93
85909;BME280;76449;52.542;4.680;2024-03-02T11:16:33;99994.25;;;20.37;40.90
85909;BME280;76449;52.542;4.680;2024-03-02T11:19:03;99990.63;;;20.38;41.21
85909;BME280;76449;52.542;4.680;2024-03-02T11:21:29;99985.44;;;20.34;40.77
85909;BME280;76449;52.542;4.680;2024-03-02T11:23:54;100003.91;;;20.39;41.09
85909;BME280;76449;52.542;4.680;2024-03-02T11:26:21;99989.66;;;20.39;40.90
85909;BME280;76449;52.542;4.680;2024-03-02T11:28:48;100003.06;;;20.39;41.28
85909;BME280;76449;52.542;4.680;2024-03-02T11:31:13;100006.59;;;20.39;40.94
85909;BME280;76449;52.542;4.680;2024-03-02T11:33:39;99992.31;;;20.39;41.23
85909;BME280;76449;52.542;4.680;2024-03-02T11:36:06;99975.56;;;20.35;41.39
85909;BME280;76449;52.542;4.680;2024-03-02T11:38:32;99989.41;;;20.42;41.31
85909;BME280;76449;52.542;4.680;2024-03-02T11:41:00;99995.75;;;20.41;41.44
85909;BME280;76449;52.542;4.680;2024-03-02T11:43:27;99989.72;;;20.37;41.20
85909;BME280;76449;52.542;4.680;2024-03-02T11:46:00;99988.69;;;20.40;41.11
85909;BME280;76449;52.542;4.680;2024-03-02T11:48:26;99987.81;;;20.39;41.42
85909;BME280;76449;52.542;4.680;2024-03-02T11:50:52;99987.69;;;20.41;41.61
85909;BME280;76449;52.542;4.680;2024-03-02T11:53:19;99979.78;;;20.39;41.51
85909;BME280;76449;52.542;4.680;2024-03-02T11:55:45;99979.56;;;20.42;41.53
85909;BME280;76449;52.542;4.680;2024-03-02T11:58:15;99981.38;;;20.42;41.51
85909;BME280;76449;52.542;4.680;2024-03-02T12:00:45;99975.25;;;20.40;41.10
85909;BME280;76449;52.542;4.680;2024-03-02T12:03:13;99987.69;;;20.41;41.64
85909;BME280;76449;52.542;4.680;2024-03-02T12:05:38;99983.19;;;20.41;41.43
85909;BME280;76449;52.542;4.680;2024-03-02T12:08:06;99981.28;;;20.43;41.72
85909;BME280;76449;52.542;4.680;2024-03-02T12:10:32;99975.91;;;20.43;41.64
85909;BME280;76449;52.542;4.680;2024-03-02T12:13:02;99963.34;;;20.44;41.42
85909;BME280;76449;52.542;4.680;2024-03-02T12:15:30;99975.91;;;20.43;41.54
85909;BME280;76449;52.542;4.680;2024-03-02T12:17:57;99969.47;;;20.46;41.48
85909;BME280;76449;52.542;4.680;2024-03-02T12:20:24;99964.00;;;20.47;41.52
85909;BME280;76449;52.542;4.680;2024-03-02T12:22:53;99965.84;;;20.47;41.47
85909;BME280;76449;52.542;4.680;2024-03-02T12:25:20;99966.63;;;20.49;41.46
85909;BME280;76449;52.542;4.680;2024-03-02T12:27:47;99952.44;;;20.47;41.67
85909;BME280;76449;52.542;4.680;2024-03-02T12:30:15;99948.81;;;20.48;41.52
85909;BME280;76449;52.542;4.680;2024-03-02T12:32:41;99951.38;;;20.49;41.31
85909;BME280;76449;52.542;4.680;2024-03-02T12:35:07;99944.56;;;20.44;41.45
85909;BME280;76449;52.542;4.680;2024-03-02T12:37:32;99934.59;;;20.46;41.29
85909;BME280;76449;52.542;4.680;2024-03-02T12:39:58;99938.06;;;20.48;41.25
85909;BME280;76449;52.542;4.680;2024-03-02T12:42:24;99919.47;;;20.45;41.46
85909;BME280;76449;52.542;4.680;2024-03-02T12:44:51;99917.88;;;20.42;41.65
85909;BME280;76449;52.542;4.680;2024-03-02T12:47:19;99924.53;;;20.49;41.18
85909;BME280;76449;52.542;4.680;2024-03-02T12:49:45;99916.59;;;20.48;41.20
85909;BME280;76449;52.542;4.680;2024-03-02T12:52:12;99921.00;;;20.49;41.42
85909;BME280;76449;52.542;4.680;2024-03-02T12:54:38;99923.75;;;20.47;41.33
85909;BME280;76449;52.542;4.680;2024-03-02T12:57:03;99927.34;;;20.48;41.51
85909;BME280;76449;52.542;4.680;2024-03-02T12:59:29;99924.66;;;20.48;41.46
85909;BME280;76449;52.542;4.680;2024-03-02T13:01:55;99921.09;;;20.47;41.38
85909;BME280;76449;52.542;4.680;2024-03-02T13:04:27;99915.81;;;20.46;41.32